Time;durP1;ratioP1;P1;durP2;ratioP2;P2;SDS_P1;SDS_P2;PMS_P1;PMS_P2;Temp;Humidity;BMP_temperature;BMP_pressure;BME280_temperature;BME280_humidity;BME280_pressure;Samples;Min_cycle;Max_cycle;Signal;HPM_P1;HPM_P2
2022/09/04 00:00:02;;;;;;;3.83;2.40;;;;;;;15.97;100.00;98951.00;5095018;28;20658;-79
2022/09/04 00:03:07;;;;;;;4.63;2.10;;;;;;;16.11;100.00;98958.59;5095497;28;20192;-79
2022/09/04 00:05:42;;;;;;;2.30;2.10;;;;;;;16.19;100.00;98960.56;5091868;28;20371;-79
2022/09/04 00:08:26;;;;;;;2.77;2.17;;;;;;;16.05;100.00;98961.00;5093855;28;20219;-79
2022/09/04 00:11:00;;;;;;;4.00;2.23;;;;;;;16.22;100.00;98965.66;5090822;28;20198;-79
2022/09/04 00:13:36;;;;;;;3.70;2.50;;;;;;;16.30;100.00;98969.31;5090960;28;20234;-79
2022/09/04 00:16:09;;;;;;;2.93;2.50;;;;;;;16.37;100.00;98974.94;5088361;28;20199;-79
2022/09/04 00:18:47;;;;;;;5.30;2.47;;;;;;;16.43;100.00;98974.41;5087185;28;20196;-79
2022/09/04 00:21:20;;;;;;;3.30;2.50;;;;;;;16.57;100.00;98973.13;5090040;28;20279;-79
2022/09/04 00:23:52;;;;;;;2.43;2.20;;;;;;;16.52;100.00;98981.59;5090412;28;20203;-79
2022/09/04 00:26:33;;;;;;;3.30;2.27;;;;;;;16.43;100.00;98984.25;5092808;28;20227;-79
2022/09/04 00:29:10;;;;;;;3.37;2.10;;;;;;;16.45;100.00;98982.28;5093577;28;20195;-79
2022/09/04 00:31:43;;;;;;;2.60;2.40;;;;;;;16.29;100.00;98981.00;5090739;28;20204;-79
2022/09/04 00:34:25;;;;;;;3.63;2.10;;;;;;;16.20;100.00;98978.31;5090282;28;20195;-79
2022/09/04 00:37:01;;;;;;;2.80;2.00;;;;;;;16.22;100.00;98979.03;5092998;28;20237;-79
2022/09/04 00:39:39;;;;;;;2.80;2.10;;;;;;;16.27;100.00;98984.78;5092398;28;20336;-79
2022/09/04 00:42:21;;;;;;;2.53;2.20;;;;;;;16.19;100.00;98985.47;5091667;28;20188;-80
2022/09/04 00:45:12;;;;;;;3.63;2.50;;;;;;;15.96;100.00;98989.38;5090632;28;20207;-80
2022/09/04 00:48:01;;;;;;;2.70;2.40;;;;;;;15.98;100.00;98990.91;5095182;28;20215;-80
2022/09/04 00:50:46;;;;;;;2.60;2.23;;;;;;;15.99;100.00;98992.59;5097960;28;20275;-79
2022/09/04 00:53:39;;;;;;;2.67;2.03;;;;;;;15.92;100.00;98998.63;5092767;28;20200;-79
2022/09/04 00:56:27;;;;;;;4.00;2.10;;;;;;;15.89;100.00;98989.06;5093511;28;20196;-80
2022/09/04 00:59:06;;;;;;;2.97;2.20;;;;;;;15.97;100.00;98989.22;5096598;28;20282;-79
2022/09/04 01:01:35;;;;;;;4.60;2.40;;;;;;;15.71;100.00;98998.69;5096917;28;20260;-80
2022/09/04 01:04:36;;;;;;;3.00;2.40;;;;;;;15.80;100.00;98997.88;5094295;28;20188;-81
2022/09/04 01:07:23;;;;;;;4.00;2.53;;;;;;;15.73;100.00;98996.75;5045979;28;20198;-81
2022/09/04 01:10:12;;;;;;;3.50;2.17;;;;;;;15.73;100.00;99004.78;5098215;28;20187;-81
2022/09/04 01:12:50;;;;;;;2.70;2.37;;;;;;;15.61;100.00;99017.34;5096402;28;20204;-80
2022/09/04 01:15:24;;;;;;;4.90;2.37;;;;;;;15.61;100.00;99019.16;5096589;28;20188;-81
2022/09/04 01:18:03;;;;;;;3.23;2.60;;;;;;;15.79;100.00;99020.22;5099947;28;20209;-79
2022/09/04 01:20:45;;;;;;;3.60;2.50;;;;;;;15.88;100.00;99011.41;5096600;28;20211;-79
2022/09/04 01:23:42;;;;;;;4.13;2.70;;;;;;;15.92;100.00;99023.53;5091228;28;20206;-79
2022/09/04 01:26:21;;;;;;;2.83;2.40;;;;;;;15.96;100.00;99013.41;5091977;28;20211;-79
2022/09/04 01:29:09;;;;;;;2.70;2.17;;;;;;;15.87;100.00;99023.09;5097506;28;20694;-79
2022/09/04 01:31:48;;;;;;;2.20;2.00;;;;;;;15.71;100.00;99023.56;5096537;27;20227;-79
2022/09/04 01:34:42;;;;;;;2.60;2.40;;;;;;;15.43;100.00;99022.41;5091054;28;20196;-79
2022/09/04 01:37:26;;;;;;;3.10;2.00;;;;;;;15.45;100.00;99022.31;5095303;28;20223;-79
2022/09/04 01:40:08;;;;;;;2.73;2.47;;;;;;;15.48;100.00;99018.53;5091094;28;20206;-79
2022/09/04 01:42:47;;;;;;;2.17;1.97;;;;;;;15.54;100.00;99028.66;5093404;28;20363;-79
2022/09/04 01:45:23;;;;;;;2.60;2.10;;;;;;;15.60;100.00;99031.69;5090983;28;20195;-79
2022/09/04 01:48:01;;;;;;;3.10;2.10;;;;;;;15.63;100.00;99028.75;5094041;28;20215;-79
2022/09/04 01:50:32;;;;;;;3.37;2.47;;;;;;;15.56;100.00;99038.25;5093452;28;20258;-79
2022/09/04 01:53:09;;;;;;;3.87;2.50;;;;;;;15.57;100.00;99031.06;5094970;28;20211;-80
2022/09/04 01:55:46;;;;;;;3.23;2.50;;;;;;;15.58;100.00;99027.41;5093478;28;20206;-79
2022/09/04 01:58:23;;;;;;;3.40;2.13;;;;;;;15.62;100.00;99034.22;5095614;28;20278;-79
2022/09/04 02:01:00;;;;;;;2.43;2.13;;;;;;;15.52;100.00;99028.78;5096274;28;20195;-79
2022/09/04 02:03:39;;;;;;;6.67;2.40;;;;;;;15.40;100.00;99032.53;5094216;28;20191;-79
2022/09/04 02:06:20;;;;;;;2.73;2.50;;;;;;;15.37;100.00;99032.78;5131123;27;20202;-79
2022/09/04 02:09:10;;;;;;;5.43;2.77;;;;;;;15.19;100.00;99037.88;5125883;27;20241;-79
2022/09/04 02:11:41;;;;;;;4.33;3.03;;;;;;;15.29;100.00;99044.13;5126652;27;20227;-79
2022/09/04 02:14:19;;;;;;;3.13;2.83;;;;;;;15.28;100.00;99042.44;5125082;27;20198;-79
2022/09/04 02:17:02;;;;;;;3.90;2.80;;;;;;;15.28;100.00;99041.59;5081979;27;20187;-79
2022/09/04 02:19:46;;;;;;;4.67;2.50;;;;;;;15.29;100.00;99038.78;5127665;27;20276;-79
2022/09/04 02:22:24;;;;;;;3.77;2.70;;;;;;;15.35;100.00;99045.44;5133434;27;20269;-79
2022/09/04 02:25:02;;;;;;;6.57;2.87;;;;;;;15.33;100.00;99044.69;5128338;27;20201;-79
2022/09/04 02:27:38;;;;;;;4.67;3.00;;;;;;;15.22;100.00;99045.59;5130595;27;20194;-79
2022/09/04 02:30:12;;;;;;;4.23;2.80;;;;;;;15.16;100.00;99051.47;5120135;27;20278;-79
2022/09/04 02:32:49;;;;;;;3.07;2.80;;;;;;;15.13;100.00;99060.56;5092567;28;20220;-79
2022/09/04 02:35:24;;;;;;;6.60;3.00;;;;;;;15.06;100.00;99056.75;5093077;28;20187;-79
2022/09/04 02:38:04;;;;;;;5.43;3.00;;;;;;;14.80;100.00;99060.75;5095168;27;20218;-79
2022/09/04 02:40:42;;;;;;;4.70;2.77;;;;;;;14.87;100.00;99070.78;5094255;28;20195;-79
2022/09/04 02:43:34;;;;;;;3.70;2.50;;;;;;;14.89;100.00;99065.31;5096718;27;20207;-79
2022/09/04 02:46:14;;;;;;;3.70;2.83;;;;;;;14.78;100.00;99074.19;5091839;28;20199;-79
2022/09/04 02:48:56;;;;;;;4.10;2.60;;;;;;;14.82;100.00;99080.13;5092480;28;20219;-79
2022/09/04 02:51:39;;;;;;;3.93;2.77;;;;;;;14.72;100.00;99074.69;5093777;28;20227;-79
2022/09/04 02:54:17;;;;;;;3.37;2.73;;;;;;;14.65;100.00;99078.00;5094163;28;20199;-79
2022/09/04 02:56:58;;;;;;;4.17;2.57;;;;;;;14.72;100.00;99073.84;5094757;28;20191;-79
2022/09/04 02:59:41;;;;;;;4.27;2.73;;;;;;;14.79;100.00;99081.22;5096376;27;20200;-79
2022/09/04 03:02:21;;;;;;;5.40;2.30;;;;;;;14.64;100.00;99085.13;5096663;28;20199;-79
2022/09/04 03:04:56;;;;;;;3.70;2.60;;;;;;;14.60;100.00;99084.56;5087435;28;20203;-79
2022/09/04 03:07:31;;;;;;;4.37;2.70;;;;;;;14.75;100.00;99089.59;5095740;28;20270;-79
2022/09/04 03:10:09;;;;;;;4.20;2.50;;;;;;;14.69;100.00;99095.44;5090903;28;20289;-79
2022/09/04 03:12:43;;;;;;;2.73;2.37;;;;;;;14.68;100.00;99086.59;5089799;28;20195;-79
2022/09/04 03:15:20;;;;;;;2.70;2.40;;;;;;;14.76;100.00;99085.94;5090813;28;20223;-79
2022/09/04 03:17:58;;;;;;;3.77;2.97;;;;;;;14.75;100.00;99093.09;5092350;28;20230;-79
2022/09/04 03:20:28;;;;;;;3.30;2.67;;;;;;;14.79;100.00;99097.22;5090575;28;20199;-79
2022/09/04 03:23:04;;;;;;;3.00;2.70;;;;;;;14.67;100.00;99095.56;5091648;28;20192;-79
2022/09/04 03:26:10;;;;;;;3.10;2.80;;;;;;;14.56;100.00;99090.25;5088266;28;20203;-79
2022/09/04 03:28:55;;;;;;;5.73;2.70;;;;;;;14.64;100.00;99092.28;5093409;28;20219;-79
2022/09/04 03:31:29;;;;;;;2.90;2.70;;;;;;;14.62;100.00;99095.09;5093220;28;20192;-79
2022/09/04 03:34:12;;;;;;;3.10;2.67;;;;;;;14.46;100.00;99098.13;5091901;28;20183;-79
2022/09/04 03:36:54;;;;;;;2.63;2.43;;;;;;;14.39;100.00;99096.09;5095887;27;20202;-79
2022/09/04 03:39:30;;;;;;;2.77;2.40;;;;;;;14.51;100.00;99098.63;5050399;28;20663;-79
2022/09/04 03:42:11;;;;;;;3.67;2.40;;;;;;;14.50;100.00;99110.25;5044049;28;20219;-79
2022/09/04 03:44:52;;;;;;;3.30;3.00;;;;;;;14.46;100.00;99108.81;5045776;28;20255;-79
2022/09/04 03:47:34;;;;;;;4.70;2.80;;;;;;;14.45;100.00;99108.94;5048264;28;20201;-79
2022/09/04 03:50:18;;;;;;;2.97;2.67;;;;;;;14.45;100.00;99116.94;5047046;28;20307;-79
2022/09/04 03:52:56;;;;;;;3.90;2.70;;;;;;;14.61;100.00;99109.38;5050906;28;20204;-79
2022/09/04 03:55:56;;;;;;;3.30;2.83;;;;;;;14.70;100.00;99113.97;5050977;28;20284;-79
2022/09/04 03:58:36;;;;;;;3.10;2.80;;;;;;;14.77;100.00;99111.66;5059804;28;20208;-79
2022/09/04 04:01:12;;;;;;;3.97;2.90;;;;;;;14.88;100.00;99111.63;5068712;28;20267;-79
2022/09/04 04:03:59;;;;;;;2.70;2.50;;;;;;;14.89;100.00;99108.81;5066988;28;20188;-79
2022/09/04 04:06:38;;;;;;;4.13;2.87;;;;;;;14.66;100.00;99107.19;5067631;28;20200;-79
2022/09/04 04:09:25;;;;;;;3.43;2.70;;;;;;;14.68;100.00;99110.59;5066714;28;20713;-79
2022/09/04 04:12:12;;;;;;;2.77;2.57;;;;;;;14.76;100.00;99101.94;5066951;28;20752;-79
2022/09/04 04:15:16;;;;;;;3.43;2.53;;;;;;;14.71;100.00;99102.34;5062881;28;20203;-79
2022/09/04 04:18:04;;;;;;;3.20;2.90;;;;;;;14.78;100.00;99106.19;5091951;28;20188;-79
2022/09/04 04:20:43;;;;;;;3.43;2.77;;;;;;;14.66;100.00;99115.19;5091814;28;20210;-79
2022/09/04 04:23:46;;;;;;;2.90;2.60;;;;;;;14.62;100.00;99115.56;5092288;28;20274;-79
2022/09/04 04:26:21;;;;;;;3.07;2.73;;;;;;;14.79;100.00;99123.88;5092345;28;20206;-79
2022/09/04 04:29:11;;;;;;;3.10;2.80;;;;;;;14.82;100.00;99117.44;5094965;28;20198;-80
2022/09/04 04:34:52;;;;;;;3.00;2.70;;;;;;;14.94;100.00;99126.25;5095388;28;20199;-79
2022/09/04 04:37:38;;;;;;;3.33;2.90;;;;;;;15.06;100.00;99128.78;5094955;28;20274;-79
2022/09/04 04:40:15;;;;;;;3.13;2.83;;;;;;;15.09;100.00;99136.50;5075269;28;20213;-79
2022/09/04 04:42:52;;;;;;;2.97;2.73;;;;;;;15.22;100.00;99128.31;5096614;28;20192;-79
2022/09/04 04:48:47;;;;;;;3.80;2.97;;;;;;;15.14;100.00;99144.97;5096517;28;20230;-79
2022/09/04 04:51:49;;;;;;;3.30;2.90;;;;;;;15.13;100.00;99147.75;5095138;28;20210;-79
2022/09/04 04:54:34;;;;;;;3.47;2.67;;;;;;;15.24;100.00;99150.38;5093258;28;20198;-79
2022/09/04 04:57:13;;;;;;;3.90;3.13;;;;;;;15.25;100.00;99154.78;5089415;28;20195;-79
2022/09/04 04:59:53;;;;;;;3.20;2.90;;;;;;;15.32;100.00;99157.75;5098136;28;20191;-80
2022/09/04 05:02:29;;;;;;;4.87;3.03;;;;;;;15.49;100.00;99157.19;5095949;28;20279;-79
2022/09/04 05:05:12;;;;;;;3.30;2.93;;;;;;;15.46;100.00;99166.31;5092305;28;20203;-79
2022/09/04 05:07:51;;;;;;;3.40;3.03;;;;;;;15.57;100.00;99153.88;5096032;28;20213;-79
2022/09/04 05:10:27;;;;;;;3.67;3.20;;;;;;;15.58;100.00;99160.91;5091687;28;20275;-79
2022/09/04 05:13:09;;;;;;;3.43;3.00;;;;;;;15.63;100.00;99167.59;5096197;28;20670;-78
2022/09/04 05:15:44;;;;;;;3.50;2.70;;;;;;;15.63;100.00;99166.72;5092252;28;20195;-79
2022/09/04 05:18:40;;;;;;;5.73;2.77;;;;;;;15.59;100.00;99176.81;5094763;28;20219;-79
2022/09/04 05:21:17;;;;;;;4.67;2.60;;;;;;;15.65;100.00;99181.66;5095967;28;20241;-79
2022/09/04 05:23:55;;;;;;;4.90;2.90;;;;;;;15.62;100.00;99189.06;5092603;28;20198;-79
2022/09/04 05:26:30;;;;;;;5.37;3.23;;;;;;;15.66;100.00;99191.38;5090946;28;20187;-79
2022/09/04 05:29:07;;;;;;;3.13;2.80;;;;;;;15.69;100.00;99198.25;5096470;28;20266;-79
2022/09/04 05:31:45;;;;;;;3.40;2.87;;;;;;;15.71;100.00;99196.31;5095392;28;20241;-79
2022/09/04 05:34:25;;;;;;;3.03;2.67;;;;;;;15.86;100.00;99204.84;5092175;28;20212;-79
2022/09/04 05:37:08;;;;;;;4.17;2.70;;;;;;;15.98;100.00;99210.00;5091001;28;20183;-79
2022/09/04 05:39:50;;;;;;;4.30;2.47;;;;;;;16.19;100.00;99201.09;5094433;28;20278;-79
2022/09/04 05:42:49;;;;;;;3.63;2.50;;;;;;;16.36;100.00;99208.50;5070951;28;20205;-79
2022/09/04 05:45:25;;;;;;;2.73;2.53;;;;;;;16.48;100.00;99214.59;5096134;28;20214;-78
2022/09/04 05:48:09;;;;;;;3.67;2.57;;;;;;;16.54;100.00;99209.59;5095099;28;20214;-79
2022/09/04 05:51:01;;;;;;;3.10;2.80;;;;;;;16.56;100.00;99206.75;5094007;28;20246;-78
2022/09/04 05:53:55;;;;;;;4.90;2.70;;;;;;;16.58;100.00;99215.50;5100797;27;20191;-79
2022/09/04 05:56:46;;;;;;;3.60;2.87;;;;;;;16.75;100.00;99214.03;5098343;27;20283;-79
2022/09/04 05:59:42;;;;;;;3.67;3.23;;;;;;;16.66;100.00;99217.50;5092492;28;20195;-79
2022/09/04 06:02:44;;;;;;;5.70;4.13;;;;;;;16.73;100.00;99222.22;5093928;28;20207;-79
2022/09/04 06:05:24;;;;;;;8.83;4.57;;;;;;;16.65;100.00;99216.66;5074826;28;20195;-79
2022/09/04 06:08:01;;;;;;;10.20;5.53;;;;;;;16.80;100.00;99226.03;5077237;28;20191;-79
2022/09/04 06:10:41;;;;;;;12.37;6.20;;;;;;;16.85;100.00;99226.47;5095524;28;20215;-79
2022/09/04 06:13:48;;;;;;;12.67;6.20;;;;;;;16.98;100.00;99236.06;5088822;28;20226;-79
2022/09/04 06:16:36;;;;;;;11.77;6.50;;;;;;;16.92;100.00;99242.84;5094819;28;20197;-79
2022/09/04 06:19:44;;;;;;;12.73;6.40;;;;;;;17.06;100.00;99247.78;5093147;28;20188;-79
2022/09/04 06:22:51;;;;;;;15.03;8.30;;;;;;;17.08;100.00;99251.19;5090381;28;20191;-79
2022/09/04 06:25:58;;;;;;;16.93;9.00;;;;;;;17.15;100.00;99279.09;5094312;28;20282;-79
2022/09/04 06:28:48;;;;;;;19.63;9.30;;;;;;;17.10;100.00;99273.31;5096811;27;20211;-79
2022/09/04 06:31:50;;;;;;;19.30;9.40;;;;;;;16.83;100.00;99283.78;5094192;28;20234;-79
2022/09/04 06:34:33;;;;;;;18.27;8.33;;;;;;;17.03;100.00;99282.84;5086897;28;20195;-79
2022/09/04 06:37:12;;;;;;;18.60;10.40;;;;;;;17.02;100.00;99291.88;5094363;28;20275;-79
2022/09/04 06:39:56;;;;;;;20.47;10.53;;;;;;;17.06;100.00;99301.31;5031845;28;20301;-79
2022/09/04 06:42:36;;;;;;;22.13;11.87;;;;;;;17.04;100.00;99315.81;5026559;28;20205;-78
2022/09/04 06:45:23;;;;;;;22.07;12.30;;;;;;;16.79;100.00;99328.69;5030205;28;20381;-79
2022/09/04 06:48:03;;;;;;;22.53;12.23;;;;;;;17.03;100.00;99332.88;5031558;28;20205;-80
2022/09/04 06:50:41;;;;;;;19.83;11.47;;;;;;;17.31;100.00;99331.28;5027748;28;20327;-79
2022/09/04 06:53:20;;;;;;;23.23;12.47;;;;;;;17.21;100.00;99338.44;5026620;28;20201;-79
2022/09/04 06:56:17;;;;;;;25.03;13.33;;;;;;;17.29;100.00;99328.75;5027081;28;20288;-79
2022/09/04 06:59:02;;;;;;;26.67;13.93;;;;;;;17.43;100.00;99333.69;5081140;28;20215;-79
2022/09/04 07:01:42;;;;;;;29.57;14.47;;;;;;;17.50;100.00;99343.88;5094845;28;20230;-79
2022/09/04 07:04:23;;;;;;;34.10;14.60;;;;;;;17.30;100.00;99333.09;5066462;28;20219;-79
2022/09/04 07:07:05;;;;;;;36.43;16.00;;;;;;;16.88;100.00;99345.75;5066159;28;20197;-79
2022/09/04 07:09:39;;;;;;;41.37;16.80;;;;;;;16.78;100.00;99360.91;5071466;28;20265;-79
2022/09/04 07:12:36;;;;;;;35.03;16.40;;;;;;;17.19;100.00;99362.66;5064840;28;20413;-79
2022/09/04 07:15:56;;;;;;;36.33;16.33;;;;;;;17.41;100.00;99367.81;5067719;28;20271;-79
2022/09/04 07:18:56;;;;;;;33.90;15.83;;;;;;;17.55;100.00;99363.88;5070975;28;20200;-79
2022/09/04 07:21:34;;;;;;;30.37;15.97;;;;;;;17.61;100.00;99367.84;5070534;28;20188;-79
2022/09/04 07:24:11;;;;;;;32.40;15.50;;;;;;;17.62;100.00;99359.69;5091345;28;20202;-79
2022/09/04 07:26:48;;;;;;;28.20;15.17;;;;;;;17.58;100.00;99366.31;5090450;28;20213;-79
2022/09/04 07:29:30;;;;;;;32.37;15.67;;;;;;;17.37;100.00;99371.75;5094942;28;20283;-79
2022/09/04 07:32:08;;;;;;;33.40;15.40;;;;;;;17.58;100.00;99373.50;5093085;28;20223;-79
2022/09/04 07:34:47;;;;;;;30.67;14.83;;;;;;;17.68;100.00;99369.00;5091661;28;20183;-79
2022/09/04 07:37:26;;;;;;;37.50;15.20;;;;;;;17.83;100.00;99364.94;5087298;28;20231;-79
2022/09/04 07:40:08;;;;;;;30.10;14.17;;;;;;;17.81;100.00;99366.09;5094477;28;20188;-79
2022/09/04 07:42:47;;;;;;;30.63;15.27;;;;;;;17.88;100.00;99375.28;5089880;28;20192;-79
2022/09/04 07:45:26;;;;;;;26.30;13.03;;;;;;;17.94;100.00;99372.84;5091646;28;20221;-79
2022/09/04 07:48:06;;;;;;;23.27;13.13;;;;;;;17.98;100.00;99366.25;5070610;28;20199;-79
2022/09/04 07:50:42;;;;;;;24.50;13.50;;;;;;;17.83;100.00;99369.47;5092272;28;20302;-79
2022/09/04 07:53:26;;;;;;;22.10;12.10;;;;;;;17.96;100.00;99378.94;5092855;28;20282;-79
2022/09/04 07:55:59;;;;;;;24.53;13.03;;;;;;;17.59;100.00;99393.94;5068076;28;20207;-79
2022/09/04 07:58:54;;;;;;;24.57;12.43;;;;;;;18.03;100.00;99390.78;5070486;28;20188;-79
2022/09/04 08:01:52;;;;;;;24.77;12.07;;;;;;;18.24;100.00;99396.03;5018960;28;20302;-79
2022/09/04 08:04:49;;;;;;;22.73;11.67;;;;;;;18.30;100.00;99391.94;5069343;28;20192;-78
2022/09/04 08:07:47;;;;;;;21.60;11.10;;;;;;;18.24;100.00;99388.00;5070225;28;20192;-79
2022/09/04 08:10:30;;;;;;;21.97;11.43;;;;;;;18.49;100.00;99389.25;5064553;28;20721;-78
2022/09/04 08:13:12;;;;;;;19.03;10.40;;;;;;;18.52;100.00;99377.38;5006879;28;20273;-79
2022/09/04 08:15:46;;;;;;;19.17;10.43;;;;;;;18.75;100.00;99377.94;5010889;28;20198;-79
2022/09/04 08:18:24;;;;;;;19.23;10.43;;;;;;;18.80;100.00;99379.19;5008452;28;20197;-79
2022/09/04 08:21:05;;;;;;;19.37;10.00;;;;;;;19.07;100.00;99373.03;5002406;28;20198;-79
2022/09/04 08:24:06;;;;;;;23.47;11.60;;;;;;;18.89;100.00;99364.03;5005345;28;20198;-79
2022/09/04 08:26:44;;;;;;;20.57;10.83;;;;;;;19.19;100.00;99370.16;5008508;28;20208;-79
2022/09/04 08:29:42;;;;;;;26.43;12.30;;;;;;;18.86;100.00;99367.88;5006758;28;20202;-79
2022/09/04 08:32:31;;;;;;;21.90;11.07;;;;;;;18.86;100.00;99378.63;5005547;28;20218;-79
2022/09/04 08:35:14;;;;;;;20.77;11.27;;;;;;;18.89;100.00;99390.88;4951024;28;20196;-79
2022/09/04 08:37:58;;;;;;;23.67;11.27;;;;;;;18.99;100.00;99385.50;4991485;28;20198;-78
2022/09/04 08:41:22;;;;;;;18.23;10.97;;;;;;;19.25;100.00;99391.91;5030059;28;20190;-79
2022/09/04 08:44:23;;;;;;;20.17;11.47;;;;;;;19.35;100.00;99400.78;4970159;28;20212;-78
2022/09/04 08:47:22;;;;;;;22.23;11.77;;;;;;;19.38;100.00;99392.41;4968946;28;20199;-79
2022/09/04 08:50:40;;;;;;;21.63;11.37;;;;;;;19.57;100.00;99387.97;4967345;28;20343;-79
2022/09/04 08:53:42;;;;;;;21.70;11.90;;;;;;;19.60;100.00;99387.69;5003135;28;20316;-78
2022/09/04 08:56:21;;;;;;;20.47;12.33;;;;;;;19.55;100.00;99389.94;5029355;28;20263;-79
2022/09/04 08:59:39;;;;;;;19.80;11.80;;;;;;;19.56;100.00;99400.56;5022966;28;20229;-79
2022/09/04 09:02:47;;;;;;;20.67;11.70;;;;;;;19.52;100.00;99398.28;4944785;28;20211;-79
2022/09/04 09:06:05;;;;;;;22.00;11.60;;;;;;;19.71;100.00;99407.13;4966234;28;20200;-79
2022/09/04 09:09:06;;;;;;;21.73;12.27;;;;;;;19.41;100.00;99402.03;5042998;28;20201;-79
2022/09/04 09:12:25;;;;;;;22.03;12.80;;;;;;;18.91;100.00;99415.75;5012536;28;20281;-78
2022/09/04 09:15:47;;;;;;;22.70;12.47;;;;;;;19.17;100.00;99402.53;5013482;28;20713;-79
2022/09/04 09:18:36;;;;;;;22.27;12.67;;;;;;;19.59;100.00;99400.28;5003278;28;20209;-79
2022/09/04 09:21:11;;;;;;;19.10;11.57;;;;;;;19.95;100.00;99403.84;5009970;28;20195;-79
2022/09/04 09:23:51;;;;;;;19.07;12.17;;;;;;;19.95;100.00;99395.78;5013747;28;20748;-79
2022/09/04 09:26:28;;;;;;;22.33;12.27;;;;;;;20.26;100.00;99392.72;4951166;28;20218;-79
2022/09/04 09:29:38;;;;;;;19.60;12.67;;;;;;;19.71;100.00;99396.38;4986781;28;20205;-79
2022/09/04 09:32:38;;;;;;;18.67;11.90;;;;;;;20.36;100.00;99401.56;4965538;28;20224;-79
2022/09/04 09:35:33;;;;;;;18.67;10.97;;;;;;;20.80;100.00;99394.38;5031629;28;20197;-79
2022/09/04 09:38:27;;;;;;;19.00;11.17;;;;;;;20.71;100.00;99383.72;5028348;28;20209;-79
2022/09/04 09:41:20;;;;;;;16.43;11.60;;;;;;;20.97;100.00;99386.41;4981867;28;20268;-79
2022/09/04 09:44:23;;;;;;;20.67;11.40;;;;;;;21.46;100.00;99375.94;5015135;28;20203;-80
2022/09/04 09:47:30;;;;;;;16.70;10.70;;;;;;;21.40;100.00;99374.72;5086714;28;20202;-79
2022/09/04 09:50:52;;;;;;;15.50;9.83;;;;;;;21.34;100.00;99376.22;5086550;28;20287;-79
2022/09/04 09:54:04;;;;;;;14.83;9.33;;;;;;;21.66;100.00;99362.00;5049595;28;20236;-79
2022/09/04 09:57:06;;;;;;;12.57;9.10;;;;;;;21.92;100.00;99353.81;5052608;28;20283;-79
2022/09/04 10:00:05;;;;;;;13.90;9.97;;;;;;;20.77;100.00;99361.56;5096752;27;20203;-79
2022/09/04 10:03:12;;;;;;;12.83;9.67;;;;;;;21.45;100.00;99366.16;5091381;28;20203;-79
2022/09/04 10:06:12;;;;;;;11.37;8.07;;;;;;;22.55;100.00;99350.50;5052881;28;20201;-79
2022/09/04 10:09:30;;;;;;;12.63;9.10;;;;;;;21.80;100.00;99347.03;5093684;28;20203;-79
2022/09/04 10:12:34;;;;;;;9.47;7.27;;;;;;;22.91;100.00;99338.50;5086762;28;20219;-79
2022/09/04 10:15:32;;;;;;;10.13;8.00;;;;;;;23.43;100.00;99334.22;5090715;28;20196;-79
2022/09/04 10:18:32;;;;;;;10.48;7.53;;;;;;;24.12;100.00;99331.63;5100317;27;20662;-79
2022/09/04 10:21:19;;;;;;;11.38;8.57;;;;;;;24.04;100.00;99328.19;5072966;28;20222;-79
2022/09/04 10:24:06;;;;;;;10.57;7.70;;;;;;;23.84;100.00;99330.50;5094808;28;20214;-79
2022/09/04 10:27:13;;;;;;;9.60;7.60;;;;;;;23.80;100.00;99326.47;5090025;28;20200;-80
2022/09/04 10:30:05;;;;;;;7.95;6.78;;;;;;;24.39;100.00;99322.16;5070477;28;20249;-80
2022/09/04 10:33:03;;;;;;;9.57;6.75;;;;;;;23.56;100.00;99325.56;5093083;28;20222;-80
2022/09/04 10:35:52;;;;;;;9.10;7.18;;;;;;;23.77;100.00;99321.44;5092705;28;20195;-80
2022/09/04 10:38:35;;;;;;;9.80;7.60;;;;;;;24.21;100.00;99325.13;5093099;28;20191;-80
2022/09/04 10:41:50;;;;;;;8.95;7.40;;;;;;;23.56;100.00;99327.44;5092475;28;20195;-80
2022/09/04 10:44:51;;;;;;;9.60;7.38;;;;;;;24.33;100.00;99325.59;5047298;28;20201;-80
2022/09/04 10:47:36;;;;;;;8.07;6.45;;;;;;;24.47;100.00;99324.78;5051828;28;20280;-80
2022/09/04 10:50:44;;;;;;;7.65;6.22;;;;;;;24.37;100.00;99324.22;5050734;28;20228;-80
2022/09/04 10:53:50;;;;;;;8.98;6.85;;;;;;;23.30;100.00;99323.16;5076648;28;20262;-80
2022/09/04 10:56:26;;;;;;;9.68;6.75;;;;;;;23.30;100.00;99314.19;5096554;27;20199;-80
2022/09/04 10:59:24;;;;;;;9.02;6.22;;;;;;;23.66;100.00;99318.09;5092184;28;20206;-80
2022/09/04 11:02:38;;;;;;;6.93;5.07;;;;;;;24.90;100.00;99314.22;5093680;28;20279;-80
2022/09/04 11:05:28;;;;;;;7.57;5.22;;;;;;;25.79;100.00;99311.44;5092822;28;20195;-80
2022/09/04 11:08:35;;;;;;;8.50;6.60;;;;;;;23.70;100.00;99319.41;5089676;28;20206;-80
2022/09/04 11:11:19;;;;;;;6.88;5.78;;;;;;;23.60;100.00;99316.09;5093633;28;20241;-80
2022/09/04 11:14:13;;;;;;;8.02;5.78;;;;;;;24.65;100.00;99310.06;5031084;28;20228;-79
2022/09/04 11:17:15;;;;;;;6.32;4.97;;;;;;;25.91;100.00;99302.59;5025556;28;20323;-80
2022/09/04 11:20:13;;;;;;;6.15;5.38;;;;;;;24.82;100.00;99307.00;5017749;28;20205;-80
2022/09/04 11:23:21;;;;;;;6.00;5.40;;;;;;;25.43;100.00;99303.25;5028099;28;20236;-80
2022/09/04 11:26:22;;;;;;;7.85;5.68;;;;;;;26.30;100.00;99300.44;4994693;28;20197;-80
2022/09/04 11:29:12;;;;;;;7.10;5.03;;;;;;;25.34;100.00;99313.38;5031336;28;20452;-80
2022/09/04 11:32:01;;;;;;;6.63;5.53;;;;;;;26.13;100.00;99306.13;5047229;28;20210;-80
2022/09/04 11:35:13;;;;;;;7.25;5.68;;;;;;;25.45;100.00;99304.75;5091568;28;20215;-80
2022/09/04 11:38:13;;;;;;;6.90;5.18;;;;;;;25.44;100.00;99300.34;5093595;28;20638;-80
2022/09/04 11:41:15;;;;;;;7.72;5.50;;;;;;;25.72;100.00;99305.94;5034284;28;20275;-80
2022/09/04 11:44:09;;;;;;;6.38;4.40;;;;;;;24.86;100.00;99310.19;5049335;28;20203;-80
2022/09/04 11:47:05;;;;;;;5.95;4.75;;;;;;;26.02;100.00;99298.50;5087783;28;20203;-80
2022/09/04 11:50:00;;;;;;;4.88;3.80;;;;;;;26.22;100.00;99307.69;5087802;28;20288;-80
2022/09/04 11:53:06;;;;;;;4.93;3.88;;;;;;;26.19;100.00;99299.09;5088102;28;20199;-80
2022/09/04 11:55:54;;;;;;;5.15;3.78;;;;;;;26.61;100.00;99309.06;5084938;28;20205;-80
2022/09/04 11:58:39;;;;;;;4.45;3.85;;;;;;;27.16;100.00;99301.94;5091283;28;20209;-80
2022/09/04 12:01:28;;;;;;;3.70;2.92;;;;;;;27.21;97.56;99304.88;5071162;28;20196;-80
2022/09/04 12:04:39;;;;;;;4.68;3.15;;;;;;;26.91;97.61;99297.97;5066892;28;20250;-80
2022/09/04 12:07:31;;;;;;;5.22;3.42;;;;;;;26.04;100.00;99307.28;4990222;28;20207;-80
2022/09/04 12:10:41;;;;;;;6.78;3.45;;;;;;;25.49;100.00;99314.19;4990501;28;20226;-80
2022/09/04 12:13:26;;;;;;;3.88;3.15;;;;;;;26.74;99.47;99298.31;4989206;28;20250;-80
2022/09/04 12:16:31;;;;;;;4.18;3.20;;;;;;;27.09;98.05;99299.16;4986704;28;20195;-80
2022/09/04 12:19:41;;;;;;;3.35;3.05;;;;;;;28.11;87.08;99301.00;4984785;28;20210;-81
2022/09/04 12:22:44;;;;;;;4.25;3.05;;;;;;;28.50;81.27;99297.47;4981720;28;20214;-81
2022/09/04 12:25:44;;;;;;;3.72;2.97;;;;;;;28.71;81.09;99296.41;5016206;28;20286;-81
2022/09/04 12:28:53;;;;;;;4.32;3.10;;;;;;;27.69;87.92;99302.16;5034063;28;20283;-80
2022/09/04 12:31:41;;;;;;;3.38;2.95;;;;;;;27.52;88.68;99300.84;5063770;28;20211;-80
2022/09/04 12:34:29;;;;;;;4.18;3.03;;;;;;;26.83;91.58;99296.28;5066637;28;20212;-80
2022/09/04 12:37:19;;;;;;;4.07;3.00;;;;;;;28.45;82.46;99291.81;5063810;28;20200;-80
2022/09/04 12:40:29;;;;;;;3.15;2.80;;;;;;;28.12;80.42;99296.41;5062917;28;20196;-80
2022/09/04 12:43:15;;;;;;;4.70;3.10;;;;;;;27.66;83.35;99302.56;5057294;28;20203;-80
2022/09/04 12:45:54;;;;;;;4.25;2.80;;;;;;;27.48;86.33;99294.09;5094129;28;20651;-80
2022/09/04 12:48:38;;;;;;;4.80;3.40;;;;;;;28.33;82.63;99287.22;5098182;27;20690;-80
2022/09/04 12:51:13;;;;;;;3.90;3.17;;;;;;;28.72;79.69;99289.06;5092597;28;20207;-80
2022/09/04 12:53:59;;;;;;;3.70;2.80;;;;;;;29.28;76.46;99294.00;5090803;28;20708;-80
2022/09/04 12:56:48;;;;;;;5.40;3.58;;;;;;;28.65;77.31;99301.84;5093209;28;20210;-80
2022/09/04 12:59:37;;;;;;;3.40;2.70;;;;;;;29.31;75.39;99299.00;5094472;28;20199;-81
2022/09/04 13:02:14;;;;;;;3.90;3.42;;;;;;;27.58;87.42;99298.13;5093885;28;20199;-80